Terminal Aerodrome Forecast
Issued by NWS Upton, NY

Home | Current Version | Previous Version | Text Only | Print | Product List | Glossary On
Versions: 1 2 3 4 5 6 7 8 9 10 11 12 13 14 15 16 17 18 19 20 21 22 23 24 25 26 27 28 29 30 31 32 33 34
779
FTUS41 KOKX 041612 AAB
TAFJFK
TAF AMD
KJFK 041612Z 0416/0518 07013KT P6SM VCSH OVC015
     FM041800 05014G19KT 4SM -RA OVC012
      TEMPO 0419/0421 BKN009
     FM042100 05012KT 4SM -RA BR OVC009
     FM050100 04014G22KT 5SM -DZ BR BKN006 OVC010
     FM051300 03010G17KT 6SM -DZ BR BKN006 OVC010=

USA.gov is the U.S. government's official web portal to all federal, state and local government web resources and services.